Time;durP1;ratioP1;P1;durP2;ratioP2;P2;SDS_P1;SDS_P2;PMS_P1;PMS_P2;Temp;Humidity;BMP_temperature;BMP_pressure;BME280_temperature;BME280_humidity;BME280_pressure;Samples;Min_cycle;Max_cycle;Signal;HPM_P1;HPM_P2
2022/05/20 00:00:46;;;;;;;68.80;42.43;;;;;;;18.70;38.59;100209.62;1749376;81;21630;-58
2022/05/20 00:03:14;;;;;;;72.50;39.83;;;;;;;18.72;38.56;100207.59;1763122;80;21795;-61
2022/05/20 00:05:41;;;;;;;66.50;39.57;;;;;;;18.77;38.49;100210.83;1746139;81;21125;-60
2022/05/20 00:08:09;;;;;;;70.03;40.97;;;;;;;18.73;38.58;100212.34;1757894;81;21151;-64
2022/05/20 00:10:38;;;;;;;66.67;40.87;;;;;;;18.77;38.69;100216.11;1758476;81;21290;-57
2022/05/20 00:13:09;;;;;;;70.73;40.53;;;;;;;18.83;38.65;100214.64;1758557;81;21836;-58
2022/05/20 00:15:37;;;;;;;70.90;39.83;;;;;;;18.88;38.61;100211.28;1758014;81;21278;-57
2022/05/20 00:18:05;;;;;;;66.47;39.33;;;;;;;18.89;38.65;100207.59;1758200;81;21254;-57
2022/05/20 00:20:33;;;;;;;66.83;37.67;;;;;;;18.80;38.83;100210.36;1758626;81;21346;-55
2022/05/20 00:23:00;;;;;;;64.00;37.77;;;;;;;18.61;39.28;100217.13;1758646;81;21194;-64
2022/05/20 00:25:46;;;;;;;64.70;39.43;;;;;;;18.51;39.55;100214.82;1757376;81;22499;-58
2022/05/20 00:28:19;;;;;;;59.10;33.67;;;;;;;18.34;40.04;100220.06;1758502;81;21314;-59
2022/05/20 00:30:50;;;;;;;59.27;35.53;;;;;;;17.90;41.00;100211.27;1754960;81;21592;-58
2022/05/20 00:33:18;;;;;;;58.87;33.57;;;;;;;17.88;41.29;100208.56;1766383;80;21303;-62
2022/05/20 00:35:45;;;;;;;53.60;30.80;;;;;;;17.87;41.44;100209.09;1766788;80;21297;-57
2022/05/20 00:38:13;;;;;;;59.80;32.43;;;;;;;17.80;41.73;100199.70;1766588;81;21840;-57
2022/05/20 00:40:40;;;;;;;48.77;27.97;;;;;;;17.61;42.09;100191.89;1766315;81;21688;-65
2022/05/20 00:43:28;;;;;;;42.47;27.70;;;;;;;17.44;42.26;100196.27;1766440;81;21248;-57
2022/05/20 00:45:59;;;;;;;44.57;26.43;;;;;;;17.42;42.34;100193.05;1766845;81;21174;-58
2022/05/20 00:48:26;;;;;;;39.75;25.75;;;;;;;17.37;42.39;100195.06;1766174;80;21302;-65
2022/05/20 00:51:17;;;;;;;41.70;24.70;;;;;;;17.26;42.57;100189.27;1758755;80;21392;-64
2022/05/20 00:54:08;;;;;;;37.98;23.20;;;;;;;17.41;42.34;100189.61;1743765;81;22035;-55
2022/05/20 00:56:55;;;;;;;40.63;21.20;;;;;;;17.44;42.34;100187.05;1765864;80;21054;-55
2022/05/20 00:59:26;;;;;;;34.17;20.30;;;;;;;17.40;42.16;100189.34;1766818;81;21616;-65
2022/05/20 01:01:54;;;;;;;34.85;20.20;;;;;;;17.38;42.14;100194.02;1767220;80;22233;-63
2022/05/20 01:04:22;;;;;;;31.10;17.97;;;;;;;17.45;42.00;100188.64;1774198;80;20987;-57
2022/05/20 01:06:49;;;;;;;28.87;17.27;;;;;;;17.32;42.15;100187.05;1785838;80;21324;-58
2022/05/20 01:09:16;;;;;;;28.10;15.77;;;;;;;17.25;42.17;100183.20;1786412;80;21372;-58
2022/05/20 01:11:44;;;;;;;23.10;14.53;;;;;;;17.16;42.36;100191.66;1786615;80;22050;-56
2022/05/20 01:14:11;;;;;;;22.97;13.87;;;;;;;17.17;42.26;100194.60;1785903;80;21270;-59
2022/05/20 01:16:39;;;;;;;25.60;14.73;;;;;;;17.22;42.03;100196.83;1760353;80;22078;-56
2022/05/20 01:19:07;;;;;;;25.73;13.93;;;;;;;17.29;41.82;100198.56;1786544;80;22113;-65
2022/05/20 01:21:35;;;;;;;24.75;14.65;;;;;;;17.37;41.58;100195.58;1785425;80;21917;-57
2022/05/20 01:24:03;;;;;;;24.02;14.90;;;;;;;17.25;41.69;100192.42;1787126;80;21818;-57
2022/05/20 01:26:30;;;;;;;24.65;14.93;;;;;;;17.07;41.98;100190.41;1786057;80;21019;-56
2022/05/20 01:28:58;;;;;;;22.20;13.65;;;;;;;17.18;41.81;100190.41;1786611;80;21137;-59
2022/05/20 01:31:25;;;;;;;29.77;15.60;;;;;;;17.30;41.60;100192.25;1785699;80;21273;-56
2022/05/20 01:33:52;;;;;;;26.57;14.57;;;;;;;17.15;41.87;100196.13;1786329;80;21771;-57
2022/05/20 01:36:23;;;;;;;25.97;14.50;;;;;;;17.11;42.14;100195.50;1786733;80;21364;-57
2022/05/20 01:38:52;;;;;;;;;;;;;;;17.00;42.49;100197.08;1789354;80;22124;-56
2022/05/20 01:41:24;;;;;;;22.15;13.38;;;;;;;16.99;42.55;100197.59;1786188;80;20437;-57
2022/05/20 01:44:18;;;;;;;23.15;13.53;;;;;;;17.00;42.60;100197.08;1786561;80;21259;-56
2022/05/20 01:47:15;;;;;;;19.87;12.40;;;;;;;16.89;42.86;100195.23;1786542;80;21418;-57
2022/05/20 01:49:59;;;;;;;16.77;10.58;;;;;;;16.96;42.93;100193.30;1742522;80;21093;-64
2022/05/20 01:53:05;;;;;;;23.95;12.00;;;;;;;16.99;43.01;100199.44;1785883;80;20932;-56
2022/05/20 01:55:44;;;;;;;18.02;11.65;;;;;;;16.89;43.30;100196.02;1786379;80;21098;-61
2022/05/20 01:58:21;;;;;;;17.57;10.50;;;;;;;16.66;43.77;100190.67;1786778;80;21396;-56
2022/05/20 02:00:48;;;;;;;17.85;9.88;;;;;;;16.76;43.79;100191.77;1786143;80;21088;-56
2022/05/20 02:03:44;;;;;;;15.80;9.90;;;;;;;16.93;43.50;100185.84;1786261;80;21140;-58
2022/05/20 02:06:20;;;;;;;17.07;10.38;;;;;;;17.19;42.96;100184.11;1786443;80;21493;-58
2022/05/20 02:08:54;;;;;;;16.93;9.98;;;;;;;17.21;42.79;100186.02;1772772;80;21571;-56
2022/05/20 02:11:29;;;;;;;17.27;9.63;;;;;;;16.97;43.21;100184.36;1786800;80;21264;-58
2022/05/20 02:14:00;;;;;;;18.23;9.55;;;;;;;17.07;43.08;100185.93;1786145;80;21087;-57
2022/05/20 02:16:30;;;;;;;;;;;;;;;17.00;43.16;100186.55;1789436;80;21015;-57
2022/05/20 02:19:08;;;;;;;16.97;9.87;;;;;;;16.99;43.09;100191.53;1786354;80;20116;-57
2022/05/20 02:21:38;;;;;;;18.80;9.90;;;;;;;17.02;43.17;100196.36;1785967;80;21254;-58
2022/05/20 02:24:08;;;;;;;15.23;9.63;;;;;;;17.08;43.17;100194.11;1786784;80;22155;-57
2022/05/20 02:26:41;;;;;;;17.83;9.47;;;;;;;17.14;43.11;100193.22;1786260;80;21213;-58
2022/05/20 02:29:13;;;;;;;15.63;9.00;;;;;;;16.94;43.57;100197.48;1786143;80;21285;-57
2022/05/20 02:31:44;;;;;;;16.53;9.37;;;;;;;17.03;43.58;100196.11;1786390;80;21123;-58
2022/05/20 02:34:11;;;;;;;14.63;8.13;;;;;;;17.09;43.54;100198.38;1786112;80;21219;-60
2022/05/20 02:36:40;;;;;;;15.27;8.77;;;;;;;17.36;43.24;100201.37;1786159;80;21721;-56
2022/05/20 02:39:15;;;;;;;16.37;9.10;;;;;;;17.36;43.16;100204.00;1786264;80;21332;-65
2022/05/20 02:41:37;;;;;;;14.80;8.93;;;;;;;17.48;42.90;100209.27;1785710;80;21668;-56
2022/05/20 02:44:05;;;;;;;14.57;9.50;;;;;;;17.56;42.89;100211.56;1786550;80;21117;-64
2022/05/20 02:46:32;;;;;;;19.27;10.00;;;;;;;17.71;42.62;100213.20;1786377;80;21222;-55
2022/05/20 02:48:59;;;;;;;16.57;9.77;;;;;;;17.74;42.53;100215.39;1786452;80;21095;-55
2022/05/20 02:51:27;;;;;;;15.97;10.07;;;;;;;17.84;42.41;100214.84;1785998;80;21573;-64
2022/05/20 02:53:55;;;;;;;18.20;11.10;;;;;;;17.89;42.22;100222.06;1786585;80;22073;-55
2022/05/20 02:56:22;;;;;;;18.70;11.43;;;;;;;17.87;42.22;100230.18;1785797;80;21290;-58
2022/05/20 03:04:21;;;;;;;18.17;10.07;;;;;;;18.14;42.16;100229.16;1785828;80;21646;-58
2022/05/20 03:06:50;;;;;;;18.03;10.33;;;;;;;18.62;41.97;100229.28;1780934;80;21301;-57
2022/05/20 03:09:21;;;;;;;17.53;9.80;;;;;;;19.49;41.31;100233.91;1780362;80;21271;-57
2022/05/20 03:11:48;;;;;;;15.63;10.32;;;;;;;20.70;39.90;100229.08;1780075;80;21363;-55
2022/05/20 03:14:18;;;;;;;14.77;8.73;;;;;;;22.14;37.85;100218.41;1780562;80;21391;-55
2022/05/20 03:16:47;;;;;;;14.63;8.70;;;;;;;23.48;35.54;100208.41;1761554;81;21011;-55
2022/05/20 03:19:15;;;;;;;14.73;8.87;;;;;;;24.76;33.63;100203.84;1761109;81;21032;-56
2022/05/20 03:21:44;;;;;;;13.67;8.17;;;;;;;25.58;31.75;100207.92;1749685;81;21242;-56
2022/05/20 03:24:12;;;;;;;13.97;8.13;;;;;;;26.38;30.54;100206.41;1761709;81;22095;-54
2022/05/20 03:26:40;;;;;;;10.03;5.93;;;;;;;27.32;29.29;100198.23;1761785;81;21170;-54
2022/05/20 03:29:07;;;;;;;10.40;6.57;;;;;;;28.25;27.55;100188.58;1760667;81;21332;-54
2022/05/20 03:31:36;;;;;;;9.97;6.13;;;;;;;28.38;26.53;100190.23;1761338;81;21317;-55
2022/05/20 03:34:07;;;;;;;10.37;6.30;;;;;;;27.89;26.57;100195.28;1761595;81;21051;-54
2022/05/20 03:36:35;;;;;;;8.48;6.42;;;;;;;27.51;26.90;100199.48;1761365;81;21094;-55
2022/05/20 03:39:05;;;;;;;10.43;6.30;;;;;;;27.06;27.16;100209.91;1761110;81;20944;-54
2022/05/20 03:41:33;;;;;;;9.77;5.87;;;;;;;26.64;27.69;100210.87;1761331;81;21024;-55
2022/05/20 03:44:00;;;;;;;7.67;4.63;;;;;;;26.12;28.11;100212.64;1762302;81;21015;-54
2022/05/20 03:46:27;;;;;;;10.67;5.80;;;;;;;26.47;28.12;100213.25;1761664;81;21671;-55
2022/05/20 03:48:55;;;;;;;8.63;5.27;;;;;;;26.96;27.53;100214.08;1761381;81;22229;-54
2022/05/20 03:51:22;;;;;;;8.87;5.03;;;;;;;27.65;26.86;100209.66;1760732;81;21322;-57
2022/05/20 03:53:49;;;;;;;8.20;5.97;;;;;;;28.36;26.42;100208.70;1761570;81;21499;-53
2022/05/20 03:56:17;;;;;;;8.53;4.93;;;;;;;29.07;25.62;100201.44;1760863;81;21004;-55
2022/05/20 03:58:44;;;;;;;11.17;5.97;;;;;;;29.78;24.89;100203.55;1761473;81;21032;-55
2022/05/20 04:03:58;;;;;;;6.67;5.10;;;;;;;31.66;23.03;100202.59;1752867;81;21333;-53
2022/05/20 04:06:25;;;;;;;9.83;5.90;;;;;;;32.39;22.15;100205.52;1760698;81;21520;-60
2022/05/20 04:08:54;;;;;;;8.93;5.70;;;;;;;32.68;21.68;100202.73;1761879;81;21681;-54
2022/05/20 04:11:21;;;;;;;10.82;6.33;;;;;;;32.39;21.31;100207.67;1760973;81;21060;-61
2022/05/20 04:13:49;;;;;;;8.90;5.95;;;;;;;31.52;21.91;100209.33;1761589;81;20996;-54
2022/05/20 04:16:16;;;;;;;12.20;6.45;;;;;;;31.63;22.13;100203.27;1761222;81;21222;-57
2022/05/20 04:18:45;;;;;;;8.98;5.53;;;;;;;32.12;22.18;100204.93;1761144;81;21052;-54
2022/05/20 04:21:13;;;;;;;8.55;5.15;;;;;;;32.29;22.39;100205.94;1761479;81;21475;-55
2022/05/20 04:23:41;;;;;;;11.03;5.65;;;;;;;33.23;21.25;100202.66;1760792;81;22114;-55
2022/05/20 04:26:10;;;;;;;10.23;5.87;;;;;;;34.11;20.38;100201.92;1761170;81;35863;-56
2022/05/20 04:28:38;;;;;;;12.82;6.47;;;;;;;34.81;20.06;100203.44;1761604;81;21740;-55
2022/05/20 04:31:06;;;;;;;10.40;6.03;;;;;;;35.55;18.66;100199.69;1761487;81;21087;-55
2022/05/20 04:33:35;;;;;;;12.55;7.55;;;;;;;35.85;17.76;100205.95;1760958;81;21071;-56
2022/05/20 04:36:03;;;;;;;12.40;6.60;;;;;;;36.22;17.47;100201.72;1761653;81;21102;-56
2022/05/20 04:38:31;;;;;;;9.98;5.62;;;;;;;36.59;16.98;100201.84;1760648;81;20972;-58
2022/05/20 04:49:16;;;;;;;12.37;6.97;;;;;;;38.21;15.31;100206.67;1740007;81;21103;-55
2022/05/20 04:51:45;;;;;;;11.43;6.80;;;;;;;38.69;14.89;100200.01;1760950;81;21107;-53
2022/05/20 04:57:00;;;;;;;14.20;7.35;;;;;;;39.55;14.32;100201.50;1753463;81;21416;-54
2022/05/20 04:59:26;;;;;;;12.30;6.65;;;;;;;39.61;13.92;100197.22;1761252;81;21001;-57
2022/05/20 05:01:54;;;;;;;10.35;6.15;;;;;;;39.30;13.83;100199.97;1761556;81;21055;-56
2022/05/20 05:04:21;;;;;;;12.43;6.67;;;;;;;39.24;13.90;100206.92;1761942;81;21098;-56
2022/05/20 05:06:48;;;;;;;12.98;6.60;;;;;;;39.14;14.18;100200.80;1763512;80;21646;-57
2022/05/20 05:09:16;;;;;;;12.37;6.70;;;;;;;39.32;14.02;100200.36;1764143;81;20991;-61
2022/05/20 05:11:43;;;;;;;10.88;6.65;;;;;;;39.64;14.11;100199.78;1752707;81;21044;-54
2022/05/20 05:14:12;;;;;;;11.45;6.80;;;;;;;39.71;14.10;100200.44;1764938;80;21557;-54
2022/05/20 05:16:39;;;;;;;11.55;5.45;;;;;;;40.11;13.69;100200.19;1748447;81;20948;-55
2022/05/20 05:19:06;;;;;;;9.60;6.10;;;;;;;40.47;13.33;100201.70;1764618;80;21942;-54
2022/05/20 05:21:33;;;;;;;12.35;7.37;;;;;;;40.62;13.10;100190.82;1748627;81;20948;-54
2022/05/20 05:24:02;;;;;;;11.20;6.37;;;;;;;40.57;13.04;100193.33;1764711;80;21022;-53
2022/05/20 05:26:30;;;;;;;11.43;6.12;;;;;;;40.82;12.65;100190.63;1749580;81;21078;-58
2022/05/20 05:28:57;;;;;;;9.68;6.00;;;;;;;40.71;12.74;100191.20;1764167;81;20992;-55
2022/05/20 05:31:26;;;;;;;7.95;5.55;;;;;;;40.22;12.89;100201.62;1749135;81;21474;-55
2022/05/20 05:33:53;;;;;;;9.43;6.10;;;;;;;40.02;12.89;100196.27;1763628;80;21039;-54
2022/05/20 05:36:20;;;;;;;10.58;6.20;;;;;;;40.23;12.90;100200.45;1748247;81;21930;-55
2022/05/20 05:38:48;;;;;;;9.68;5.35;;;;;;;39.89;13.14;100200.72;1741549;81;21024;-58
2022/05/20 05:41:20;;;;;;;11.35;6.20;;;;;;;39.88;12.81;100187.44;1746228;82;21074;-54
2022/05/20 05:43:47;;;;;;;11.90;5.90;;;;;;;39.75;12.87;100197.92;1738986;81;21856;-61
2022/05/20 05:46:16;;;;;;;10.20;6.28;;;;;;;39.47;12.96;100192.27;1764506;80;21082;-58
2022/05/20 05:48:45;;;;;;;13.98;7.22;;;;;;;39.45;12.89;100197.34;1719755;83;21066;-56
2022/05/20 05:51:12;;;;;;;12.63;7.42;;;;;;;39.33;12.95;100201.94;1764374;81;20996;-56
2022/05/20 05:53:41;;;;;;;11.20;7.20;;;;;;;39.34;12.95;100199.41;1737530;81;21860;-61
2022/05/20 05:56:09;;;;;;;12.68;7.05;;;;;;;39.37;13.24;100212.29;1764704;80;21148;-58
2022/05/20 05:58:38;;;;;;;14.10;7.83;;;;;;;39.59;12.87;100202.85;1749586;81;21042;-56
2022/05/20 06:01:05;;;;;;;12.50;8.00;;;;;;;39.63;13.06;100205.05;1753407;81;21008;-57
2022/05/20 06:03:33;;;;;;;12.37;8.10;;;;;;;39.65;12.90;100204.84;1718105;82;22026;-58
2022/05/20 06:06:00;;;;;;;15.38;8.60;;;;;;;39.66;12.80;100198.80;1708319;83;21058;-57
2022/05/20 06:08:28;;;;;;;15.75;8.25;;;;;;;39.87;12.73;100202.26;1691156;84;21206;-56
2022/05/20 06:10:56;;;;;;;11.78;8.13;;;;;;;40.04;12.81;100200.75;1690656;83;21711;-63
2022/05/20 06:13:29;;;;;;;11.15;6.50;;;;;;;40.24;12.62;100199.30;1691563;84;20964;-58
2022/05/20 06:15:57;;;;;;;12.28;6.85;;;;;;;40.49;12.16;100193.09;1691303;84;21483;-57
2022/05/20 06:18:26;;;;;;;12.40;7.50;;;;;;;40.40;12.29;100198.95;1691274;83;21055;-54
2022/05/20 06:20:53;;;;;;;10.43;6.75;;;;;;;40.50;11.98;100198.75;1691325;83;21134;-54
2022/05/20 06:23:20;;;;;;;14.65;8.93;;;;;;;40.54;12.12;100192.73;1690814;83;21586;-55
2022/05/20 06:25:48;;;;;;;13.08;9.00;;;;;;;40.75;11.97;100195.50;1691054;84;21519;-55
2022/05/20 06:28:16;;;;;;;14.30;10.03;;;;;;;41.25;12.07;100195.48;1691544;83;21372;-55
2022/05/20 06:30:43;;;;;;;14.18;8.38;;;;;;;41.63;11.69;100197.78;1747178;81;20960;-56
2022/05/20 06:33:10;;;;;;;13.05;8.23;;;;;;;41.71;11.25;100193.28;1758162;81;21323;-62
2022/05/20 06:41:09;;;;;;;19.12;10.23;;;;;;;40.44;11.14;100194.86;1758225;81;20937;-62
2022/05/20 06:43:37;;;;;;;16.27;10.70;;;;;;;40.43;11.53;100196.81;1758190;81;21043;-54
2022/05/20 06:46:04;;;;;;;16.67;9.88;;;;;;;40.45;11.48;100203.24;1758818;81;21367;-55
2022/05/20 06:48:49;;;;;;;19.00;11.75;;;;;;;40.30;11.61;100200.47;1758904;81;21486;-61
2022/05/20 06:51:20;;;;;;;18.75;11.53;;;;;;;40.04;11.54;100204.26;1757771;81;21051;-56
2022/05/20 06:53:47;;;;;;;14.87;9.70;;;;;;;39.55;11.78;100200.69;1758869;81;21941;-55
2022/05/20 06:56:15;;;;;;;16.00;11.55;;;;;;;39.49;11.87;100202.23;1758424;81;21365;-55
2022/05/20 06:58:43;;;;;;;21.50;10.93;;;;;;;39.49;11.81;100202.23;1746635;81;21240;-57
2022/05/20 07:01:10;;;;;;;17.07;11.95;;;;;;;39.43;11.75;100203.73;1758679;81;20991;-61
2022/05/20 07:03:37;;;;;;;18.98;13.28;;;;;;;39.29;11.82;100202.50;1758283;81;21080;-54
2022/05/20 07:06:05;;;;;;;21.20;14.15;;;;;;;39.14;11.68;100211.70;1759165;81;21407;-55
2022/05/20 07:08:33;;;;;;;19.27;13.32;;;;;;;39.18;11.74;100205.70;1761504;81;20945;-64
2022/05/20 07:11:02;;;;;;;19.23;13.70;;;;;;;39.05;11.84;100201.69;1761983;81;22739;-55
2022/05/20 07:13:30;;;;;;;20.75;15.50;;;;;;;38.98;11.95;100207.08;1760866;81;21458;-59
2022/05/20 07:15:57;;;;;;;17.48;12.28;;;;;;;38.80;11.97;100207.73;1762082;81;21051;-55
2022/05/20 07:18:25;;;;;;;14.75;9.88;;;;;;;38.75;12.10;100209.39;1761487;81;21008;-64
2022/05/20 07:20:53;;;;;;;13.98;8.88;;;;;;;38.68;11.94;100198.42;1761851;81;21695;-54
2022/05/20 07:23:24;;;;;;;14.05;8.43;;;;;;;38.63;11.96;100206.36;1761558;81;21289;-55
2022/05/20 07:25:50;;;;;;;15.05;10.15;;;;;;;38.58;12.23;100211.38;1761562;81;21044;-55
2022/05/20 07:28:18;;;;;;;15.08;9.43;;;;;;;38.59;11.92;100206.91;1761514;81;20917;-62
2022/05/20 07:30:45;;;;;;;11.08;6.87;;;;;;;38.66;12.23;100192.58;1761685;81;20937;-55
2022/05/20 07:33:12;;;;;;;12.18;6.47;;;;;;;38.63;11.92;100205.58;1761940;81;20944;-56
2022/05/20 07:35:40;;;;;;;12.47;7.12;;;;;;;38.79;12.00;100202.05;1761015;81;21147;-59
2022/05/20 07:38:08;;;;;;;12.15;7.62;;;;;;;38.72;11.79;100202.54;1761643;81;20964;-55
2022/05/20 07:40:35;;;;;;;15.98;7.40;;;;;;;38.37;12.37;100205.12;1757397;81;21568;-56
2022/05/20 07:43:02;;;;;;;10.80;4.37;;;;;;;38.22;12.43;100203.56;1742397;81;22443;-56
2022/05/20 07:45:30;;;;;;;6.72;4.20;;;;;;;38.14;12.12;100203.28;1760856;81;21876;-56
2022/05/20 07:47:58;;;;;;;8.83;5.20;;;;;;;37.93;11.91;100210.63;1761292;81;21318;-55
2022/05/20 07:50:25;;;;;;;10.08;5.20;;;;;;;38.00;12.03;100207.21;1761549;81;20969;-55
2022/05/20 07:55:44;;;;;;;9.83;6.37;;;;;;;38.08;12.09;100213.53;1756946;81;21265;-55
2022/05/20 07:58:13;;;;;;;11.22;7.05;;;;;;;38.06;11.98;100212.52;1761923;81;21407;-56
2022/05/20 08:00:40;;;;;;;13.62;7.08;;;;;;;37.85;12.40;100198.63;1761312;81;21208;-55
2022/05/20 08:03:08;;;;;;;14.30;8.60;;;;;;;37.82;12.59;100211.03;1761965;81;20929;-64
2022/05/20 08:05:35;;;;;;;9.18;6.28;;;;;;;37.96;12.40;100211.25;1761447;81;21016;-54
2022/05/20 08:08:06;;;;;;;9.85;6.67;;;;;;;38.11;12.42;100208.12;1764723;80;21064;-54
2022/05/20 08:10:35;;;;;;;13.90;8.50;;;;;;;37.94;12.32;100198.58;1738703;81;21106;-55
2022/05/20 08:13:02;;;;;;;17.85;12.82;;;;;;;37.92;12.30;100198.73;1765014;80;21139;-55
2022/05/20 08:15:31;;;;;;;21.52;12.93;;;;;;;37.87;12.33;100198.45;1763848;81;21133;-57
2022/05/20 08:18:00;;;;;;;18.50;12.25;;;;;;;38.17;12.23;100194.95;1763803;81;21047;-55
2022/05/20 08:20:28;;;;;;;15.60;11.30;;;;;;;38.07;12.55;100195.61;1764615;81;21525;-56
2022/05/20 08:22:56;;;;;;;15.40;9.65;;;;;;;38.33;12.24;100194.16;1764987;80;21466;-55
2022/05/20 08:25:24;;;;;;;16.93;9.98;;;;;;;38.10;12.12;100191.56;1763858;81;22194;-61
2022/05/20 08:27:52;;;;;;;12.80;7.80;;;;;;;37.91;12.32;100192.50;1764404;81;21028;-56
2022/05/20 08:30:23;;;;;;;10.63;7.00;;;;;;;38.00;12.61;100202.32;1763996;81;20932;-55
2022/05/20 08:32:50;;;;;;;11.20;6.50;;;;;;;38.20;12.25;100195.00;1765151;80;21274;-54
2022/05/20 08:35:17;;;;;;;10.48;6.50;;;;;;;38.04;12.34;100196.37;1764420;80;21008;-59
2022/05/20 08:37:45;;;;;;;11.75;5.62;;;;;;;38.18;12.28;100197.88;1764658;81;21255;-55
2022/05/20 08:40:26;;;;;;;10.68;6.12;;;;;;;38.03;12.19;100200.23;1764684;80;21391;-57
2022/05/20 08:42:54;;;;;;;9.68;4.80;;;;;;;38.12;12.34;100193.36;1760211;80;21035;-55
2022/05/20 08:45:22;;;;;;;12.03;7.97;;;;;;;38.56;12.07;100179.63;1763841;81;20992;-55
2022/05/20 08:47:50;;;;;;;10.98;8.43;;;;;;;38.69;11.90;100187.75;1764621;81;22046;-56
2022/05/20 08:50:35;;;;;;;9.93;6.42;;;;;;;38.36;11.93;100186.64;1764283;81;22356;-55
2022/05/20 08:53:03;;;;;;;10.15;5.78;;;;;;;38.21;11.96;100184.89;1764090;81;21003;-55
2022/05/20 08:55:31;;;;;;;7.08;4.28;;;;;;;38.40;12.26;100186.09;1740574;81;21080;-54
2022/05/20 08:57:59;;;;;;;11.03;4.97;;;;;;;38.65;11.70;100192.38;1764359;81;21047;-58
2022/05/20 09:00:27;;;;;;;8.65;4.90;;;;;;;38.62;11.86;100193.91;1764374;81;21094;-55
2022/05/20 09:02:55;;;;;;;11.20;5.95;;;;;;;38.52;11.71;100191.85;1764702;81;21857;-56
2022/05/20 09:05:32;;;;;;;10.88;6.50;;;;;;;38.45;12.02;100187.69;1764608;80;21063;-54
2022/05/20 09:08:06;;;;;;;11.40;6.10;;;;;;;38.26;11.72;100178.32;1759733;81;20996;-61
2022/05/20 09:10:43;;;;;;;12.47;8.38;;;;;;;38.38;12.00;100180.25;1756157;81;21954;-60
2022/05/20 09:16:20;;;;;;;17.73;12.78;;;;;;;38.04;11.88;100180.04;1757389;81;21673;-55
2022/05/20 09:18:51;;;;;;;17.25;11.28;;;;;;;37.72;11.94;100174.94;1747793;81;21077;-55
2022/05/20 09:21:33;;;;;;;13.95;8.88;;;;;;;37.72;11.94;100174.94;1729322;81;26505;-59
2022/05/20 09:24:07;;;;;;;12.65;7.70;;;;;;;37.35;12.20;100167.41;1758356;81;21115;-55
2022/05/20 09:26:38;;;;;;;12.85;9.35;;;;;;;37.37;12.14;100170.55;1756500;81;20983;-55
2022/05/20 09:29:23;;;;;;;9.93;7.10;;;;;;;37.21;12.35;100165.85;1758026;81;20961;-55
2022/05/20 09:31:53;;;;;;;9.03;5.42;;;;;;;37.46;12.32;100162.93;1747389;81;22311;-59
2022/05/20 09:34:38;;;;;;;8.50;5.65;;;;;;;37.52;12.05;100157.97;1758301;81;21015;-57
2022/05/20 09:37:16;;;;;;;10.65;7.55;;;;;;;37.53;12.61;100166.33;1757692;81;21000;-63
2022/05/20 09:39:45;;;;;;;13.38;10.55;;;;;;;38.08;12.08;100157.73;1747517;81;20997;-57
2022/05/20 09:42:17;;;;;;;14.85;11.35;;;;;;;38.14;11.68;100165.75;1758572;81;21267;-55
2022/05/20 09:44:56;;;;;;;13.45;9.93;;;;;;;37.96;11.46;100156.83;1747032;81;21051;-56
2022/05/20 09:47:40;;;;;;;13.60;8.50;;;;;;;37.96;11.46;100156.83;1758124;81;21421;-56
2022/05/20 09:50:31;;;;;;;14.40;10.63;;;;;;;37.83;11.74;100154.67;1755872;81;20924;-57
2022/05/20 09:53:05;;;;;;;18.45;13.83;;;;;;;37.82;11.82;100156.61;1758719;81;21082;-55
2022/05/20 09:55:41;;;;;;;15.78;11.10;;;;;;;37.69;11.53;100160.70;1757554;81;21240;-56
2022/05/20 09:58:27;;;;;;;13.22;9.98;;;;;;;37.61;11.52;100160.41;1758644;81;21040;-57
2022/05/20 10:01:09;;;;;;;11.73;9.93;;;;;;;37.56;11.52;100158.02;1758410;81;21419;-57
2022/05/20 10:03:43;;;;;;;12.88;9.55;;;;;;;37.66;11.80;100145.15;1757943;81;21334;-56
2022/05/20 10:06:29;;;;;;;12.65;9.98;;;;;;;37.79;12.31;100149.77;1758329;81;20881;-55
2022/05/20 10:09:21;;;;;;;16.73;11.60;;;;;;;37.82;11.85;100153.11;1717550;83;21144;-56
2022/05/20 10:12:07;;;;;;;16.82;13.45;;;;;;;37.40;12.27;100150.80;1718049;82;20944;-55
2022/05/20 10:15:01;;;;;;;18.40;13.68;;;;;;;37.35;12.15;100151.67;1702679;83;21056;-56
2022/05/20 10:17:57;;;;;;;20.10;13.75;;;;;;;37.28;12.21;100152.37;1717773;83;21023;-56
2022/05/20 10:20:38;;;;;;;20.10;14.40;;;;;;;37.09;12.44;100156.52;1717056;82;20988;-55
2022/05/20 10:23:14;;;;;;;;;;;;;;;37.00;12.65;100156.78;1720682;82;21274;-55
2022/05/20 10:26:35;;;;;;;15.93;13.78;;;;;;;36.86;12.67;100146.46;1706941;83;20423;-59
2022/05/20 10:32:36;;;;;;;21.33;15.75;;;;;;;37.31;13.12;100140.74;1717127;82;21520;-57
2022/05/20 10:35:08;;;;;;;20.52;16.80;;;;;;;37.11;12.94;100144.72;1712004;83;21004;-55
2022/05/20 10:38:06;;;;;;;21.37;16.37;;;;;;;36.60;13.16;100140.97;1717140;82;21248;-57
2022/05/20 10:40:46;;;;;;;20.80;18.07;;;;;;;36.00;13.64;100140.81;1717285;82;21490;-55
2022/05/20 10:48:34;;;;;;;21.02;16.45;;;;;;;35.34;14.14;100147.08;1713625;83;21017;-55
2022/05/20 10:48:59;;;;;;;16.42;13.13;;;;;;;34.84;15.13;100145.31;1718308;82;20975;-61
2022/05/20 10:51:56;;;;;;;18.52;13.32;;;;;;;35.16;14.91;100130.98;1717912;82;21722;-55
2022/05/20 10:54:41;;;;;;;14.80;12.35;;;;;;;35.41;14.83;100135.05;1717574;82;20987;-64
2022/05/20 10:57:39;;;;;;;14.45;11.93;;;;;;;35.62;14.85;100127.21;1717507;82;20984;-65
2022/05/20 11:00:20;;;;;;;14.45;12.95;;;;;;;35.78;14.91;100121.93;1717168;83;21513;-56
2022/05/20 11:03:10;;;;;;;;;;;;;;;35.87;14.67;100124.42;1720065;82;20948;-57
2022/05/20 11:06:20;;;;;;;19.52;16.62;;;;;;;35.92;14.85;100132.30;1717388;83;22363;-56
2022/05/20 11:09:03;;;;;;;16.20;14.50;;;;;;;35.78;14.90;100126.58;1751291;80;20995;-57
2022/05/20 11:12:02;;;;;;;18.37;15.03;;;;;;;35.96;14.66;100121.52;1755037;81;21624;-60
2022/05/20 11:15:06;;;;;;;18.65;14.65;;;;;;;36.05;14.60;100125.59;1737447;81;21057;-60
2022/05/20 11:17:56;;;;;;;16.15;14.38;;;;;;;35.70;15.03;100119.44;1765511;81;21052;-64
2022/05/20 11:20:37;;;;;;;17.25;14.45;;;;;;;35.58;15.25;100125.78;1765935;80;21161;-60
2022/05/20 11:23:21;;;;;;;17.67;14.15;;;;;;;35.55;15.17;100116.42;1767103;80;21018;-56
2022/05/20 11:26:36;;;;;;;16.70;13.80;;;;;;;35.55;15.12;100112.92;1766708;81;21564;-57
2022/05/20 11:29:23;;;;;;;19.67;14.23;;;;;;;35.46;15.50;100113.11;1767401;80;21100;-54
2022/05/20 11:32:05;;;;;;;17.85;13.75;;;;;;;35.50;15.36;100103.16;1766215;81;21045;-62
2022/05/20 11:35:10;;;;;;;14.78;13.28;;;;;;;35.13;15.67;100109.46;1766739;80;21250;-54
2022/05/20 11:38:02;;;;;;;16.25;14.55;;;;;;;34.50;15.84;100110.22;1766572;81;21034;-54
2022/05/20 11:40:41;;;;;;;15.40;13.80;;;;;;;34.14;15.94;100103.86;1766693;80;21503;-55
2022/05/20 11:43:26;;;;;;;19.03;16.77;;;;;;;33.64;16.32;100093.52;1766668;81;21004;-55
2022/05/20 11:46:27;;;;;;;19.97;17.30;;;;;;;33.59;16.90;100100.52;1766234;80;20960;-62
2022/05/20 11:49:33;;;;;;;21.23;17.50;;;;;;;33.63;17.22;100095.44;1766296;81;21595;-55
2022/05/20 11:52:30;;;;;;;25.07;19.27;;;;;;;33.70;17.15;100096.22;1757543;81;21004;-55
2022/05/20 11:55:06;;;;;;;19.60;16.33;;;;;;;33.70;17.21;100090.02;1767188;81;21051;-54
2022/05/20 11:57:38;;;;;;;22.27;17.13;;;;;;;33.51;16.91;100090.64;1766260;80;21026;-57
2022/05/20 12:00:14;;;;;;;20.03;16.87;;;;;;;33.48;17.06;100091.31;1766353;81;21650;-55
2022/05/20 12:02:46;;;;;;;21.10;16.57;;;;;;;33.36;17.02;100090.75;1766802;81;21139;-54
2022/05/20 12:05:15;;;;;;;21.57;16.87;;;;;;;33.17;17.59;100090.77;1765967;81;20961;-60
2022/05/20 12:07:42;;;;;;;18.17;15.23;;;;;;;32.75;17.55;100089.39;1754872;80;21012;-56
2022/05/20 12:10:39;;;;;;;20.07;15.70;;;;;;;32.38;17.70;100088.72;1766115;81;20964;-63
2022/05/20 12:13:20;;;;;;;16.77;13.83;;;;;;;32.12;18.02;100087.63;1766050;81;21039;-54
2022/05/20 12:16:12;;;;;;;26.37;16.20;;;;;;;32.03;18.42;100084.80;1766533;80;22230;-55
2022/05/20 12:24:44;;;;;;;36.80;20.57;;;;;;;32.37;17.99;100070.18;1761555;80;21091;-55